Time;durP1;ratioP1;P1;durP2;ratioP2;P2;SDS_P1;SDS_P2;PMS_P1;PMS_P2;Temp;Humidity;BMP_temperature;BMP_pressure;BME280_temperature;BME280_humidity;BME280_pressure;Samples;Min_cycle;Max_cycle;Signal;HPM_P1;HPM_P2
2021/06/24 00:01:42;;;;;;;42.05;13.65;;;;;;;22.87;76.15;100186.81;5028608;28;20081;-65
2021/06/24 00:04:08;;;;;;;47.30;14.57;;;;;;;22.89;76.29;100200.91;4996338;28;20045;-67
2021/06/24 00:06:34;;;;;;;51.80;15.00;;;;;;;22.79;76.66;100194.47;5030751;28;20128;-67
2021/06/24 00:09:00;;;;;;;46.67;14.40;;;;;;;22.80;77.07;100210.41;5030316;28;20497;-69
2021/06/24 00:11:25;;;;;;;53.08;14.63;;;;;;;22.70;76.93;100193.28;5030786;28;20053;-66
2021/06/24 00:13:52;;;;;;;50.08;15.15;;;;;;;22.77;77.21;100207.06;5031842;28;20037;-68
2021/06/24 00:16:18;;;;;;;60.67;15.07;;;;;;;22.71;77.55;100208.31;4980809;28;20052;-67
2021/06/24 00:18:44;;;;;;;50.50;15.07;;;;;;;22.65;77.51;100202.53;5030768;28;20500;-66
2021/06/24 00:21:09;;;;;;;43.58;13.98;;;;;;;22.65;78.28;100213.19;5031196;28;20045;-66
2021/06/24 00:23:35;;;;;;;55.50;15.70;;;;;;;22.63;78.22;100215.13;5030465;28;20116;-66
2021/06/24 00:26:01;;;;;;;59.80;15.40;;;;;;;22.60;78.25;100215.31;4980273;28;20037;-65
2021/06/24 00:28:27;;;;;;;47.85;14.40;;;;;;;22.62;78.43;100219.59;5013189;28;20100;-67
2021/06/24 00:30:55;;;;;;;66.25;16.42;;;;;;;22.60;78.44;100215.31;5013539;28;20057;-65
2021/06/24 00:33:40;;;;;;;61.97;15.27;;;;;;;22.59;78.48;100217.13;5001181;28;20041;-66
2021/06/24 00:36:06;;;;;;;54.10;14.80;;;;;;;22.59;78.30;100214.47;5029781;28;20538;-65
2021/06/24 00:38:32;;;;;;;55.95;14.63;;;;;;;22.59;78.69;100218.94;5012727;28;20132;-65
2021/06/24 00:40:58;;;;;;;61.58;15.05;;;;;;;22.54;77.63;100216.59;5030239;28;20140;-65
2021/06/24 00:43:26;;;;;;;45.03;15.10;;;;;;;22.63;77.53;100229.31;5030714;28;20510;-63
2021/06/24 00:45:52;;;;;;;50.83;15.63;;;;;;;22.66;77.82;100233.59;5029908;28;20075;-66
2021/06/24 00:48:19;;;;;;;47.28;16.08;;;;;;;22.62;77.54;100222.25;5013715;28;20045;-67
2021/06/24 00:50:47;;;;;;;45.38;14.48;;;;;;;22.63;77.12;100237.31;5028534;28;20408;-67
2021/06/24 00:53:14;;;;;;;53.65;13.65;;;;;;;22.57;77.04;100232.38;5029225;28;20041;-65
2021/06/24 00:55:44;;;;;;;40.38;14.90;;;;;;;22.50;77.56;100231.94;5027956;28;20042;-66
2021/06/24 00:58:20;;;;;;;41.28;15.23;;;;;;;22.43;78.19;100235.97;5045170;28;20406;-66
2021/06/24 01:00:49;;;;;;;46.38;14.73;;;;;;;22.33;78.01;100226.00;5012095;28;20073;-67
2021/06/24 01:03:16;;;;;;;48.15;15.00;;;;;;;22.42;78.02;100239.56;5033797;28;20043;-68
2021/06/24 01:05:44;;;;;;;42.47;15.50;;;;;;;22.40;77.59;100229.97;5032392;28;20418;-67
2021/06/24 01:08:11;;;;;;;43.50;14.20;;;;;;;22.46;77.78;100246.41;5048973;28;20045;-67
2021/06/24 01:10:39;;;;;;;52.58;15.05;;;;;;;22.51;77.98;100249.63;5016418;28;20053;-66
2021/06/24 01:13:07;;;;;;;41.97;14.75;;;;;;;22.57;78.02;100250.19;4983108;28;20053;-67
2021/06/24 01:15:37;;;;;;;52.45;15.57;;;;;;;22.60;77.53;100247.31;5032077;28;20041;-67
2021/06/24 01:18:03;;;;;;;48.90;14.98;;;;;;;22.63;77.39;100247.13;5032331;28;20503;-66
2021/06/24 01:20:32;;;;;;;47.70;15.98;;;;;;;22.64;77.34;100249.69;5032965;28;20041;-67
2021/06/24 01:22:59;;;;;;;57.13;16.05;;;;;;;22.67;77.36;100249.47;5016089;28;20072;-68
2021/06/24 01:25:25;;;;;;;43.83;14.70;;;;;;;22.67;77.29;100248.63;5016094;28;20049;-67
2021/06/24 01:28:10;;;;;;;45.25;14.50;;;;;;;22.70;76.72;100251.94;4999925;28;20051;-66
2021/06/24 01:30:40;;;;;;;49.60;15.07;;;;;;;22.65;76.40;100234.53;5015674;28;20073;-66
2021/06/24 01:33:08;;;;;;;39.10;14.45;;;;;;;22.74;76.43;100247.25;5016219;28;20056;-67
2021/06/24 01:35:34;;;;;;;50.85;14.88;;;;;;;22.76;76.58;100243.53;5031952;28;20042;-67
2021/06/24 01:38:03;;;;;;;42.88;14.77;;;;;;;22.71;76.33;100239.47;5031719;28;20045;-67
2021/06/24 01:40:30;;;;;;;47.05;17.52;;;;;;;22.81;76.51;100245.94;4999320;28;20051;-64
2021/06/24 01:42:56;;;;;;;51.13;15.93;;;;;;;22.87;75.99;100240.19;5032660;28;20142;-65
2021/06/24 01:45:23;;;;;;;43.92;16.88;;;;;;;22.91;76.02;100256.84;5049036;28;20052;-66
2021/06/24 01:47:49;;;;;;;46.42;18.45;;;;;;;22.94;75.44;100246.81;5032041;28;20511;-66
2021/06/24 01:50:16;;;;;;;44.60;15.38;;;;;;;22.87;74.94;100234.84;5031877;28;20068;-67
2021/06/24 01:52:44;;;;;;;40.22;16.15;;;;;;;23.03;75.01;100254.19;5032039;28;20102;-69
2021/06/24 01:55:12;;;;;;;47.08;15.82;;;;;;;23.10;74.13;100250.19;5032309;28;20041;-67
2021/06/24 01:57:50;;;;;;;55.08;15.52;;;;;;;23.07;73.52;100237.06;5015279;28;20041;-68
2021/06/24 02:00:39;;;;;;;54.83;15.20;;;;;;;23.22;72.82;100252.97;5031773;28;20053;-67
2021/06/24 02:03:15;;;;;;;54.63;15.48;;;;;;;23.31;72.85;100252.34;4984415;28;20073;-67
2021/06/24 02:05:43;;;;;;;49.70;15.45;;;;;;;23.37;72.43;100266.13;5030955;28;20132;-66
2021/06/24 02:08:20;;;;;;;49.30;14.57;;;;;;;23.38;72.04;100251.81;5015283;28;20498;-66
2021/06/24 02:11:09;;;;;;;46.95;15.48;;;;;;;23.58;71.51;100258.47;5031721;28;20140;-67
2021/06/24 02:13:40;;;;;;;48.93;13.97;;;;;;;23.64;71.07;100252.69;5013280;28;20049;-67
2021/06/24 02:16:07;;;;;;;43.55;13.80;;;;;;;23.85;71.30;100262.88;5031826;28;20041;-68
2021/06/24 02:18:33;;;;;;;47.47;13.60;;;;;;;23.93;70.90;100263.19;5014165;28;20045;-67
2021/06/24 02:21:04;;;;;;;43.05;13.82;;;;;;;24.07;70.41;100255.88;5032057;28;20541;-69
2021/06/24 02:23:47;;;;;;;45.53;13.75;;;;;;;24.34;69.66;100247.69;5000804;28;20095;-68
2021/06/24 02:26:35;;;;;;;36.05;13.07;;;;;;;25.11;66.26;100236.66;5030096;28;20041;-69
2021/06/24 02:29:08;;;;;;;41.60;13.90;;;;;;;25.81;63.81;100241.91;5031094;28;20049;-67
2021/06/24 02:31:34;;;;;;;46.47;12.25;;;;;;;26.33;61.44;100256.53;5030839;28;20053;-67
2021/06/24 02:34:10;;;;;;;32.75;12.07;;;;;;;26.70;60.35;100267.78;5014071;28;20052;-69
2021/06/24 02:36:51;;;;;;;44.65;12.18;;;;;;;27.13;58.68;100267.78;5016383;28;20091;-66
2021/06/24 02:39:19;;;;;;;39.03;11.98;;;;;;;27.64;57.72;100264.34;5012827;28;20048;-69
2021/06/24 02:41:45;;;;;;;34.58;10.98;;;;;;;27.97;56.49;100264.06;5033110;28;20049;-67
2021/06/24 02:44:11;;;;;;;37.15;11.40;;;;;;;28.47;55.57;100264.13;5031653;28;20090;-66
2021/06/24 02:46:37;;;;;;;49.00;11.70;;;;;;;28.88;53.87;100265.75;5032865;28;20045;-66
2021/06/24 02:49:03;;;;;;;41.20;11.27;;;;;;;29.39;53.22;100261.91;5031611;28;20042;-67
2021/06/24 02:51:46;;;;;;;44.47;11.55;;;;;;;29.83;51.47;100256.88;5032435;28;20073;-67
2021/06/24 02:54:18;;;;;;;42.75;11.75;;;;;;;30.23;50.42;100245.75;5030699;28;20041;-62
2021/06/24 02:56:46;;;;;;;38.45;11.77;;;;;;;30.54;47.82;100254.41;5030187;28;20530;-62
2021/06/24 02:59:48;;;;;;;47.53;11.03;;;;;;;30.98;46.62;100244.53;5009771;28;20050;-62
2021/06/24 03:02:15;;;;;;;33.40;10.90;;;;;;;31.28;46.23;100244.16;5005747;28;20379;-62
2021/06/24 03:04:43;;;;;;;32.63;10.52;;;;;;;31.62;45.44;100235.25;5030583;28;20076;-62
2021/06/24 03:07:09;;;;;;;37.90;11.68;;;;;;;31.96;44.90;100229.91;5013755;28;20083;-62
2021/06/24 03:09:47;;;;;;;45.00;11.75;;;;;;;32.39;43.65;100247.00;5031542;28;20041;-62
2021/06/24 03:12:13;;;;;;;40.45;11.40;;;;;;;32.55;43.24;100236.19;5014079;28;20141;-63
2021/06/24 03:14:42;;;;;;;46.33;11.65;;;;;;;32.74;42.66;100248.59;5030873;28;20140;-61
2021/06/24 03:17:09;;;;;;;55.63;12.43;;;;;;;32.83;42.65;100234.06;5030815;28;20042;-62
2021/06/24 03:19:36;;;;;;;44.63;12.07;;;;;;;32.98;42.60;100255.94;5013224;28;20139;-62
2021/06/24 03:22:08;;;;;;;47.08;11.90;;;;;;;33.15;42.17;100253.06;5031923;28;20103;-62
2021/06/24 03:24:53;;;;;;;53.10;12.73;;;;;;;33.69;40.88;100247.94;5013610;28;20041;-64
2021/06/24 03:27:23;;;;;;;42.67;11.73;;;;;;;33.97;39.74;100242.09;5045465;28;20037;-63
2021/06/24 03:30:10;;;;;;;47.28;12.88;;;;;;;34.40;38.85;100249.75;5031056;28;20048;-62
2021/06/24 03:32:36;;;;;;;41.60;11.98;;;;;;;34.84;38.22;100254.56;5012835;28;20049;-61
2021/06/24 03:35:03;;;;;;;43.75;12.35;;;;;;;34.98;36.73;100232.06;4994972;28;20091;-62
2021/06/24 03:37:30;;;;;;;45.65;12.43;;;;;;;35.27;36.66;100238.59;5028709;28;20052;-62
2021/06/24 03:39:56;;;;;;;40.45;12.05;;;;;;;35.73;36.10;100243.94;5009415;28;20037;-61
2021/06/24 03:42:22;;;;;;;46.67;12.98;;;;;;;35.82;36.77;100235.53;5012497;28;20064;-62
2021/06/24 03:44:49;;;;;;;60.97;12.63;;;;;;;35.59;37.71;100235.56;5029302;28;20049;-60
2021/06/24 03:47:16;;;;;;;59.85;13.13;;;;;;;35.57;37.76;100242.22;5028988;28;20072;-61
2021/06/24 03:49:42;;;;;;;50.45;12.73;;;;;;;35.65;37.40;100233.97;5027979;28;20128;-61
2021/06/24 03:52:09;;;;;;;46.03;13.73;;;;;;;36.22;36.89;100242.31;5030203;28;20579;-61
2021/06/24 03:54:35;;;;;;;39.97;12.77;;;;;;;36.58;35.18;100241.53;4980309;28;20053;-62
2021/06/24 03:57:04;;;;;;;48.95;12.27;;;;;;;37.03;34.62;100240.31;5028665;28;20037;-61
2021/06/24 03:59:41;;;;;;;41.10;11.77;;;;;;;37.35;34.10;100238.97;5013956;28;20128;-62
2021/06/24 04:02:07;;;;;;;63.38;12.50;;;;;;;37.72;33.39;100236.91;5028242;28;20073;-62
2021/06/24 04:04:32;;;;;;;35.65;11.60;;;;;;;37.95;32.14;100223.81;5028924;28;20396;-60
2021/06/24 04:06:59;;;;;;;47.67;11.65;;;;;;;38.25;31.64;100234.47;5028845;28;20442;-62
2021/06/24 04:09:25;;;;;;;38.78;11.68;;;;;;;38.50;31.32;100229.28;5012344;28;20052;-62
2021/06/24 04:11:51;;;;;;;50.10;11.25;;;;;;;38.76;31.23;100235.72;5011333;28;20068;-63
2021/06/24 04:14:43;;;;;;;46.08;11.50;;;;;;;39.09;30.85;100227.53;5027347;28;20057;-62
2021/06/24 04:17:31;;;;;;;40.25;11.25;;;;;;;39.38;30.45;100231.72;5013492;28;20044;-62
2021/06/24 04:19:57;;;;;;;41.58;10.55;;;;;;;39.63;29.99;100225.63;5029104;28;20453;-61
2021/06/24 04:22:23;;;;;;;31.55;10.85;;;;;;;40.00;29.94;100240.50;5009821;28;20612;-61
2021/06/24 04:25:14;;;;;;;42.33;11.48;;;;;;;40.28;29.28;100231.97;5023126;28;20045;-62
2021/06/24 04:27:42;;;;;;;39.70;10.20;;;;;;;40.61;28.06;100238.13;5011708;28;20092;-64
2021/06/24 04:30:09;;;;;;;36.05;10.55;;;;;;;40.75;28.33;100230.66;5011229;28;20506;-63
2021/06/24 04:32:39;;;;;;;40.38;10.65;;;;;;;41.10;28.40;100242.03;5027050;28;20422;-62
2021/06/24 04:35:05;;;;;;;41.55;9.98;;;;;;;41.38;28.13;100230.63;4995271;28;20123;-63
2021/06/24 04:37:32;;;;;;;31.50;9.93;;;;;;;41.40;28.08;100231.22;5024956;28;20033;-63
2021/06/24 04:39:58;;;;;;;39.50;9.85;;;;;;;41.57;28.24;100231.47;5011400;28;20047;-62
2021/06/24 04:42:32;;;;;;;39.53;10.10;;;;;;;41.79;27.76;100226.44;5011397;28;20547;-63
2021/06/24 04:45:07;;;;;;;38.88;9.93;;;;;;;42.17;27.06;100231.69;5025648;28;20067;-63
2021/06/24 04:47:40;;;;;;;34.10;9.18;;;;;;;42.50;24.79;100229.38;5027147;28;20041;-62
2021/06/24 04:50:07;;;;;;;30.38;7.53;;;;;;;42.57;24.85;100232.03;5025015;28;20084;-64
2021/06/24 04:52:48;;;;;;;33.00;8.10;;;;;;;43.04;24.64;100237.66;5012389;28;20418;-65
2021/06/24 04:55:19;;;;;;;;;;;;;;;43.26;24.49;100229.72;5042217;28;20077;-63
2021/06/24 04:57:48;;;;;;;40.50;8.68;;;;;;;43.29;23.65;100240.25;5010355;28;19927;-62
2021/06/24 05:00:33;;;;;;;30.27;8.02;;;;;;;43.41;23.55;100232.81;5026950;28;20191;-62
2021/06/24 05:03:18;;;;;;;37.85;8.65;;;;;;;41.63;25.92;100225.13;5028940;28;20443;-63
2021/06/24 05:05:48;;;;;;;44.05;9.90;;;;;;;40.92;27.11;100225.50;5026331;28;20045;-63
2021/06/24 05:08:20;;;;;;;34.85;9.07;;;;;;;41.36;26.95;100226.41;5027330;28;20132;-62
2021/06/24 05:10:46;;;;;;;40.75;8.75;;;;;;;42.40;25.43;100231.81;5028314;28;20049;-63
2021/06/24 05:13:12;;;;;;;31.10;7.55;;;;;;;42.99;24.19;100224.59;5026883;28;20088;-63
2021/06/24 05:15:41;;;;;;;30.88;7.80;;;;;;;43.77;23.12;100230.88;5044203;28;20046;-62
2021/06/24 05:18:07;;;;;;;29.27;7.68;;;;;;;44.12;22.38;100245.47;5028622;28;20042;-61
2021/06/24 05:20:33;;;;;;;26.88;8.25;;;;;;;43.80;22.62;100219.38;5026965;28;20045;-63
2021/06/24 05:22:59;;;;;;;41.58;8.60;;;;;;;44.24;22.62;100238.00;5011537;28;20056;-62
2021/06/24 05:25:24;;;;;;;34.65;7.65;;;;;;;42.82;24.33;100229.09;5027794;28;20042;-64
2021/06/24 05:27:50;;;;;;;25.67;7.28;;;;;;;43.41;23.13;100232.81;5028856;28;20084;-64
2021/06/24 05:30:16;;;;;;;33.00;7.35;;;;;;;43.78;22.89;100229.81;4992455;28;20522;-62
2021/06/24 05:32:44;;;;;;;30.92;7.05;;;;;;;43.63;23.42;100214.59;5010096;28;20410;-62
2021/06/24 05:35:10;;;;;;;18.80;6.20;;;;;;;43.10;24.04;100225.69;5026424;28;20056;-63
2021/06/24 05:37:36;;;;;;;27.60;6.45;;;;;;;42.23;25.91;100225.25;5026991;28;20050;-61
2021/06/24 05:40:03;;;;;;;28.10;6.97;;;;;;;42.02;25.95;100220.22;5028063;28;20041;-62
2021/06/24 05:42:28;;;;;;;25.15;6.63;;;;;;;41.72;26.42;100220.19;5026413;28;20228;-63
2021/06/24 05:44:54;;;;;;;22.30;7.32;;;;;;;41.20;27.29;100220.44;5026056;28;20092;-62
2021/06/24 05:47:20;;;;;;;28.67;5.47;;;;;;;41.29;25.22;100211.91;5027013;28;20522;-63
2021/06/24 05:49:46;;;;;;;26.02;5.63;;;;;;;41.82;23.59;100214.97;5011336;28;20041;-62
2021/06/24 05:52:12;;;;;;;21.08;4.63;;;;;;;41.80;22.78;100212.47;5030570;28;20577;-63
2021/06/24 05:54:37;;;;;;;19.48;4.30;;;;;;;41.80;21.62;100212.47;5028695;28;20049;-63
2021/06/24 05:57:04;;;;;;;19.30;4.20;;;;;;;41.60;21.37;100209.03;5029176;28;20577;-64
2021/06/24 05:59:29;;;;;;;16.27;4.13;;;;;;;41.42;21.68;100209.03;5030032;28;20057;-62
2021/06/24 06:01:55;;;;;;;20.42;4.10;;;;;;;42.13;20.84;100202.97;5030345;28;20049;-62
2021/06/24 06:04:21;;;;;;;18.40;4.30;;;;;;;42.27;21.09;100193.47;5029713;28;20042;-64
2021/06/24 06:06:48;;;;;;;15.65;3.72;;;;;;;41.72;20.99;100207.28;5029871;28;20059;-64
2021/06/24 06:09:14;;;;;;;16.27;3.70;;;;;;;42.10;20.99;100208.94;5012335;28;20041;-65
2021/06/24 06:11:39;;;;;;;14.88;4.03;;;;;;;42.33;21.17;100200.78;5028911;28;20103;-63
2021/06/24 06:14:05;;;;;;;16.65;4.53;;;;;;;43.00;20.29;100209.75;5030249;28;20056;-63
2021/06/24 06:16:31;;;;;;;13.40;4.50;;;;;;;44.21;20.05;100204.53;5031264;28;20085;-65
2021/06/24 06:18:57;;;;;;;21.77;4.50;;;;;;;43.57;20.63;100215.56;5013394;28;20057;-63
2021/06/24 06:21:24;;;;;;;23.33;4.00;;;;;;;43.88;19.98;100210.75;5030616;28;20089;-62
2021/06/24 06:23:50;;;;;;;19.35;4.43;;;;;;;43.64;20.24;100204.41;4981357;28;20098;-63
2021/06/24 06:26:15;;;;;;;18.80;4.25;;;;;;;43.62;20.34;100204.63;5030239;28;20506;-63
2021/06/24 06:28:41;;;;;;;17.52;4.03;;;;;;;43.02;20.52;100204.84;5030591;28;20048;-61
2021/06/24 06:31:07;;;;;;;17.40;4.05;;;;;;;42.42;20.47;100207.66;5029284;28;20053;-63
2021/06/24 06:33:33;;;;;;;20.77;3.55;;;;;;;42.14;20.96;100202.75;5027854;28;20096;-62
2021/06/24 06:35:58;;;;;;;22.35;4.15;;;;;;;42.57;19.56;100199.00;5031108;28;20057;-63
2021/06/24 06:38:25;;;;;;;22.38;4.28;;;;;;;43.36;18.99;100202.41;5028162;28;20121;-63
2021/06/24 06:40:50;;;;;;;20.92;3.78;;;;;;;42.41;20.27;100208.75;5028927;28;20080;-60
2021/06/24 06:43:18;;;;;;;23.67;4.90;;;;;;;43.22;20.49;100204.53;5027927;28;20046;-63
2021/06/24 06:45:45;;;;;;;20.00;4.30;;;;;;;43.51;20.26;100204.66;5029115;28;20040;-61
2021/06/24 06:48:12;;;;;;;20.80;3.80;;;;;;;42.56;20.86;100213.00;5011558;28;20132;-62
2021/06/24 06:50:39;;;;;;;16.58;3.92;;;;;;;42.61;20.34;100202.13;5030295;28;20056;-63
2021/06/24 06:53:06;;;;;;;17.52;3.72;;;;;;;42.17;20.41;100195.94;5029957;28;20079;-62
2021/06/24 06:55:33;;;;;;;18.13;3.97;;;;;;;42.01;20.22;100194.66;5010610;28;20140;-63
2021/06/24 06:57:59;;;;;;;19.83;3.92;;;;;;;41.51;20.96;100186.53;5029955;28;20077;-63
2021/06/24 07:00:26;;;;;;;20.92;3.70;;;;;;;42.11;20.27;100183.13;5028915;28;20475;-62
2021/06/24 07:02:52;;;;;;;16.83;3.42;;;;;;;41.86;19.97;100197.78;5028380;28;20042;-62
2021/06/24 07:05:18;;;;;;;13.50;3.00;;;;;;;41.75;19.80;100179.34;4994079;28;20049;-62
2021/06/24 07:07:44;;;;;;;22.02;3.75;;;;;;;41.96;19.47;100193.66;5027418;28;20416;-64
2021/06/24 07:10:10;;;;;;;19.77;3.35;;;;;;;42.31;19.03;100194.69;5029395;28;20048;-62
2021/06/24 07:12:36;;;;;;;26.30;3.70;;;;;;;42.25;19.91;100187.38;5029492;28;20064;-63
2021/06/24 07:15:02;;;;;;;30.55;3.75;;;;;;;42.26;20.30;100180.78;5012314;28;20136;-62
2021/06/24 07:17:27;;;;;;;20.23;3.42;;;;;;;41.82;20.79;100191.09;5028864;28;20144;-63
2021/06/24 07:19:54;;;;;;;18.88;3.80;;;;;;;42.42;20.12;100193.91;5029888;28;20042;-62
2021/06/24 07:22:19;;;;;;;22.48;3.30;;;;;;;43.32;18.72;100195.69;5029895;28;20045;-62
2021/06/24 07:24:46;;;;;;;18.70;3.65;;;;;;;43.19;17.82;100187.66;5029738;28;20041;-61
2021/06/24 07:27:12;;;;;;;20.85;3.60;;;;;;;42.67;18.53;100198.44;5011759;28;20073;-62
2021/06/24 07:29:38;;;;;;;17.58;3.92;;;;;;;42.56;19.07;100183.56;5030352;28;20233;-62
2021/06/24 07:32:04;;;;;;;15.02;3.47;;;;;;;42.68;18.11;100175.34;5028597;28;20057;-62
2021/06/24 07:34:31;;;;;;;23.45;4.00;;;;;;;43.85;17.41;100175.38;5029797;28;20045;-63
2021/06/24 07:36:57;;;;;;;22.30;3.60;;;;;;;43.38;17.68;100175.44;5030203;28;20434;-62
2021/06/24 07:39:23;;;;;;;12.02;3.45;;;;;;;42.67;18.87;100181.91;4994988;28;20041;-63
2021/06/24 07:41:49;;;;;;;16.77;3.13;;;;;;;42.29;19.38;100180.31;5028951;28;20050;-62
2021/06/24 07:44:14;;;;;;;18.38;3.65;;;;;;;43.23;18.66;100180.56;5012391;28;20494;-65
2021/06/24 07:46:40;;;;;;;30.23;3.78;;;;;;;43.91;17.26;100171.66;5012551;28;20048;-64
2021/06/24 07:49:06;;;;;;;26.38;4.03;;;;;;;42.94;18.33;100174.09;5029591;28;20502;-61
2021/06/24 07:51:32;;;;;;;17.65;3.80;;;;;;;41.66;19.30;100174.38;5028677;28;20516;-61
2021/06/24 07:53:58;;;;;;;17.15;3.80;;;;;;;41.58;19.69;100169.97;5026985;28;20161;-63
2021/06/24 07:56:23;;;;;;;14.98;3.60;;;;;;;41.62;19.34;100171.25;5028587;28;20081;-62
2021/06/24 07:58:52;;;;;;;21.33;4.30;;;;;;;41.82;19.83;100166.34;5027989;28;20135;-62
2021/06/24 08:01:18;;;;;;;22.63;4.18;;;;;;;41.55;20.27;100165.78;5027670;28;20163;-62
2021/06/24 08:03:44;;;;;;;22.65;4.10;;;;;;;41.30;20.66;100161.41;5011431;28;20202;-61
2021/06/24 08:06:10;;;;;;;15.45;3.85;;;;;;;40.94;21.00;100168.50;5027495;28;20040;-64
2021/06/24 08:08:36;;;;;;;18.27;4.20;;;;;;;40.80;20.82;100156.75;5028894;28;20042;-63
2021/06/24 08:11:02;;;;;;;19.08;4.50;;;;;;;40.63;21.72;100159.19;5026297;28;20082;-62
2021/06/24 08:13:28;;;;;;;18.38;3.78;;;;;;;39.99;22.20;100157.44;5027765;28;20403;-62
2021/06/24 08:15:55;;;;;;;23.23;4.45;;;;;;;40.25;21.79;100159.22;5028201;28;20092;-64
2021/06/24 08:18:22;;;;;;;18.85;3.92;;;;;;;41.20;20.81;100157.28;5011478;28;20136;-63
2021/06/24 08:20:48;;;;;;;25.67;4.10;;;;;;;42.18;19.73;100145.38;5027919;28;20072;-60
2021/06/24 08:23:15;;;;;;;32.88;4.88;;;;;;;42.77;19.84;100143.63;4995254;28;20049;-62
2021/06/24 08:25:41;;;;;;;29.30;4.63;;;;;;;42.13;20.10;100153.47;5029219;28;20045;-61
2021/06/24 08:28:07;;;;;;;20.23;4.07;;;;;;;41.35;20.96;100161.56;5044513;28;20042;-62
2021/06/24 08:30:36;;;;;;;21.17;4.40;;;;;;;41.75;20.37;100138.09;5027739;28;20041;-63
2021/06/24 08:33:02;;;;;;;21.10;4.15;;;;;;;41.22;21.76;100152.41;5012076;28;20163;-63
2021/06/24 08:35:28;;;;;;;24.58;4.28;;;;;;;40.07;22.41;100141.81;5008103;28;20037;-65
2021/06/24 08:37:54;;;;;;;24.13;4.32;;;;;;;39.47;22.94;100146.66;5025796;28;20612;-63
2021/06/24 08:40:19;;;;;;;18.48;4.68;;;;;;;40.00;22.59;100153.66;5010126;28;20843;-62
2021/06/24 08:42:46;;;;;;;20.75;4.18;;;;;;;41.42;20.95;100145.84;5027086;28;20042;-72
2021/06/24 08:45:12;;;;;;;17.52;3.95;;;;;;;40.90;21.62;100150.78;5026900;28;20141;-71
2021/06/24 08:47:41;;;;;;;20.33;3.78;;;;;;;40.83;21.49;100152.72;5009598;28;20049;-74
2021/06/24 08:50:09;;;;;;;29.88;4.63;;;;;;;40.97;21.40;100148.84;5027845;28;20558;-75
2021/06/24 08:52:35;;;;;;;17.92;4.00;;;;;;;40.81;21.55;100154.84;5027208;28;20041;-73
2021/06/24 08:55:02;;;;;;;17.75;4.20;;;;;;;40.15;22.05;100144.31;5027248;28;20053;-72
2021/06/24 08:57:30;;;;;;;21.05;4.20;;;;;;;39.84;22.36;100145.06;5025543;28;20568;-73
2021/06/24 08:59:58;;;;;;;21.35;3.75;;;;;;;40.10;22.55;100144.09;5008519;28;20052;-74
2021/06/24 09:02:51;;;;;;;23.20;4.32;;;;;;;39.45;23.32;100148.75;5026379;28;20049;-72
2021/06/24 09:05:16;;;;;;;35.60;4.55;;;;;;;38.71;24.14;100130.72;5027085;28;20053;-71
2021/06/24 09:07:53;;;;;;;20.73;4.53;;;;;;;38.10;25.20;100126.13;5026325;28;20039;-74
2021/06/24 09:10:24;;;;;;;21.40;4.60;;;;;;;37.84;25.56;100142.44;5027134;28;20107;-73
2021/06/24 09:12:55;;;;;;;23.48;4.70;;;;;;;38.33;24.70;100139.47;5026651;28;20156;-66
2021/06/24 09:15:25;;;;;;;21.52;3.80;;;;;;;37.94;25.65;100126.53;5027534;28;20041;-67
2021/06/24 09:17:51;;;;;;;20.58;4.35;;;;;;;37.72;25.75;100138.59;5009651;28;20042;-67
2021/06/24 09:20:19;;;;;;;20.10;3.95;;;;;;;36.77;26.93;100120.09;5026188;28;20620;-69
2021/06/24 09:23:22;;;;;;;22.35;4.07;;;;;;;36.68;27.91;100130.28;5028492;28;20119;-68
2021/06/24 09:26:06;;;;;;;26.70;4.03;;;;;;;35.69;27.92;100128.31;5030801;28;20188;-68
2021/06/24 09:28:39;;;;;;;60.40;6.22;;;;;;;35.10;28.98;100136.44;4997744;28;20410;-67
2021/06/24 09:31:23;;;;;;;16.92;4.15;;;;;;;34.69;30.23;100139.47;5013202;28;20124;-66
2021/06/24 09:33:49;;;;;;;15.07;4.35;;;;;;;34.74;29.68;100137.06;5030746;28;20069;-67
2021/06/24 09:36:33;;;;;;;14.13;3.90;;;;;;;34.87;29.32;100125.59;5029694;28;20045;-65
2021/06/24 09:38:58;;;;;;;18.60;3.50;;;;;;;35.04;29.59;100122.53;5030276;28;20102;-68
2021/06/24 09:41:24;;;;;;;20.50;4.68;;;;;;;34.95;29.44;100114.66;5029369;28;20045;-68
2021/06/24 09:43:50;;;;;;;21.17;4.32;;;;;;;34.61;29.79;100115.09;5030422;28;20047;-68
2021/06/24 09:46:20;;;;;;;18.00;4.38;;;;;;;34.48;29.82;100099.41;5031489;28;20128;-67
2021/06/24 09:49:01;;;;;;;25.05;4.43;;;;;;;34.39;29.93;100106.78;5044251;28;20049;-68
2021/06/24 09:51:29;;;;;;;21.13;4.45;;;;;;;34.77;29.00;100117.66;5031285;28;20045;-70
2021/06/24 09:54:01;;;;;;;15.65;3.85;;;;;;;34.79;29.27;100118.31;4994787;28;20092;-67
2021/06/24 09:56:46;;;;;;;17.38;4.00;;;;;;;34.57;28.41;100101.03;5029256;28;20064;-68
2021/06/24 09:59:14;;;;;;;18.20;4.57;;;;;;;34.38;28.28;100115.97;5028931;28;20525;-66
2021/06/24 10:01:46;;;;;;;13.82;4.22;;;;;;;34.34;28.94;100117.34;5012481;28;20049;-67
2021/06/24 10:04:19;;;;;;;15.93;4.35;;;;;;;34.64;29.03;100109.28;5029367;28;20053;-68
2021/06/24 10:06:50;;;;;;;18.80;3.97;;;;;;;34.55;29.38;100111.22;5031777;28;20054;-65
2021/06/24 10:09:16;;;;;;;17.48;4.25;;;;;;;34.65;29.33;100117.25;5013351;28;20038;-68
2021/06/24 10:11:45;;;;;;;15.70;4.32;;;;;;;34.63;29.27;100113.88;5031376;28;20057;-68
2021/06/24 10:14:11;;;;;;;13.52;4.00;;;;;;;34.41;28.76;100112.88;5012599;28;20057;-68
2021/06/24 10:16:36;;;;;;;18.23;3.70;;;;;;;34.30;29.23;100110.56;5028751;28;20045;-67
2021/06/24 10:19:03;;;;;;;15.35;4.28;;;;;;;34.23;28.86;100117.75;5029920;28;20041;-67
2021/06/24 10:21:30;;;;;;;17.05;3.72;;;;;;;34.27;28.71;100124.50;5030239;28;20099;-69
2021/06/24 10:24:01;;;;;;;18.08;3.70;;;;;;;34.24;28.84;100122.16;5028672;28;20045;-67
2021/06/24 10:26:28;;;;;;;12.80;3.30;;;;;;;34.16;27.29;100121.31;5012784;28;20067;-67
2021/06/24 10:29:19;;;;;;;15.50;4.00;;;;;;;34.10;27.72;100123.72;5028618;28;20526;-67
2021/06/24 10:31:53;;;;;;;11.25;3.47;;;;;;;34.19;27.56;100121.84;5028695;28;20053;-67
2021/06/24 10:34:20;;;;;;;19.55;3.92;;;;;;;34.23;28.32;100123.16;5010936;28;20045;-67
2021/06/24 10:37:13;;;;;;;14.68;3.70;;;;;;;34.18;28.94;100114.69;5026982;28;20096;-66
2021/06/24 10:39:40;;;;;;;14.88;3.47;;;;;;;34.11;28.57;100114.56;4978933;28;20053;-66
2021/06/24 10:42:08;;;;;;;16.23;4.03;;;;;;;34.09;29.16;100121.19;5044055;28;20450;-66
2021/06/24 10:44:56;;;;;;;15.25;3.70;;;;;;;34.17;29.03;100129.28;5027975;28;20044;-67
2021/06/24 10:47:28;;;;;;;19.58;4.28;;;;;;;34.23;28.79;100117.75;5029221;28;20091;-67
2021/06/24 10:49:54;;;;;;;20.60;4.60;;;;;;;33.99;29.86;100112.44;5027345;28;20042;-67
2021/06/24 10:52:25;;;;;;;15.38;3.95;;;;;;;33.95;30.38;100119.25;5026759;28;20077;-67
2021/06/24 10:54:54;;;;;;;;;;;;;;;34.00;30.44;100116.84;5027485;28;20396;-66
2021/06/24 10:57:31;;;;;;;15.35;4.22;;;;;;;33.92;30.70;100103.31;5026817;28;19920;-67
2021/06/24 11:00:49;;;;;;;19.55;4.53;;;;;;;34.01;31.03;100107.69;5028949;28;20056;-68
2021/06/24 11:03:17;;;;;;;13.43;4.88;;;;;;;34.10;31.02;100091.16;5026276;28;20212;-67
2021/06/24 11:05:48;;;;;;;13.02;4.30;;;;;;;34.41;30.83;100099.28;5026287;28;20124;-66
2021/06/24 11:08:13;;;;;;;;;;;;;;;34.25;30.50;100110.25;5028604;28;20071;-69
2021/06/24 11:11:01;;;;;;;20.05;4.50;;;;;;;34.03;30.81;100100.19;5027387;28;20386;-65
2021/06/24 11:16:20;;;;;;;15.13;4.70;;;;;;;34.02;31.09;100099.34;5029799;28;20103;-70
2021/06/24 11:18:53;;;;;;;21.80;4.05;;;;;;;33.99;30.59;100099.72;5029255;28;20132;-67
2021/06/24 11:21:43;;;;;;;10.13;3.63;;;;;;;33.90;29.75;100099.94;5028728;28;20141;-67
2021/06/24 11:24:09;;;;;;;14.35;4.35;;;;;;;33.96;29.76;100104.66;5027901;28;20045;-67
2021/06/24 11:26:40;;;;;;;24.63;4.18;;;;;;;33.93;30.53;100105.00;5027501;28;20115;-66
2021/06/24 11:34:21;;;;;;;15.65;4.15;;;;;;;33.82;31.40;100100.84;5029584;28;20049;-67